createdAt,value
2023-05-09T00:00:56.689Z,968.5162
2023-05-09T00:01:59.197Z,968.4923
2023-05-09T00:03:01.848Z,968.4808
2023-05-09T00:04:04.355Z,968.4615
2023-05-09T00:05:06.976Z,968.4492
2023-05-09T00:06:09.528Z,968.4446
2023-05-09T00:07:12.237Z,968.4377
2023-05-09T00:08:14.727Z,968.4308
2023-05-09T00:09:17.349Z,968.4208
2023-05-09T00:10:19.919Z,968.4077
2023-05-09T00:11:22.534Z,968.3947
2023-05-09T00:12:25.105Z,968.3800
2023-05-09T00:13:27.749Z,968.3630
2023-05-09T00:14:30.298Z,968.3477
2023-05-09T00:15:32.924Z,968.3339
2023-05-09T00:16:35.887Z,968.3170
2023-05-09T00:17:38.143Z,968.3100
2023-05-09T00:18:40.701Z,968.2985
2023-05-09T00:19:43.321Z,968.2938
2023-05-09T00:20:45.898Z,968.2854
2023-05-09T00:21:48.470Z,968.2785
2023-05-09T00:22:51.193Z,968.2685
2023-05-09T00:23:53.668Z,968.2430
2023-05-09T00:24:56.289Z,968.2146
2023-05-09T00:25:58.862Z,968.1985
2023-05-09T00:27:01.483Z,968.1761
2023-05-09T00:28:04.049Z,968.1746
2023-05-09T00:30:40.861Z,968.1864
2023-05-09T00:31:43.481Z,968.1785
2023-05-09T00:32:46.102Z,968.1692
2023-05-09T00:33:48.625Z,968.1569
2023-05-09T00:34:51.248Z,968.1516
2023-05-09T00:35:53.824Z,968.1447
2023-05-09T00:36:56.466Z,968.1370
2023-05-09T00:37:59.134Z,968.1415
2023-05-09T00:39:01.679Z,968.1408
2023-05-09T00:40:04.232Z,968.1315
2023-05-09T00:41:06.849Z,968.1208
2023-05-09T00:42:09.421Z,968.1230
2023-05-09T00:43:12.045Z,968.1169
2023-05-09T00:44:14.652Z,968.1077
2023-05-09T00:46:27.388Z,968.0864
2023-05-09T00:47:29.988Z,968.0608
2023-05-09T00:48:32.557Z,968.0500
2023-05-09T00:49:35.138Z,968.0685
2023-05-09T00:50:37.778Z,968.0608
2023-05-09T00:51:40.359Z,968.0654
2023-05-09T00:52:42.973Z,968.0831
2023-05-09T00:53:45.721Z,968.0847
2023-05-09T00:54:48.182Z,968.0754
2023-05-09T00:55:50.755Z,968.0754
2023-05-09T00:56:53.384Z,968.0662
2023-05-09T00:57:55.966Z,968.0546
2023-05-09T00:58:58.598Z,968.0492
2023-05-09T01:00:01.170Z,968.0423
2023-05-09T01:01:03.857Z,968.0285
2023-05-09T01:02:06.361Z,968.0200
2023-05-09T01:03:09.124Z,968.0139
2023-05-09T01:04:11.576Z,967.9985
2023-05-09T01:05:14.545Z,967.9985
2023-05-09T01:06:17.269Z,968.0046
2023-05-09T01:07:19.394Z,968.0123
2023-05-09T01:08:21.975Z,968.0215
2023-05-09T01:09:24.683Z,968.0170
2023-05-09T01:10:27.175Z,968.0177
2023-05-09T01:11:29.785Z,968.0231
2023-05-09T01:12:32.366Z,968.0277
2023-05-09T01:13:35.002Z,968.0377
2023-05-09T01:14:37.562Z,968.0346
2023-05-09T01:15:40.219Z,968.0308
2023-05-09T01:16:42.789Z,968.0215
2023-05-09T01:17:45.401Z,968.0162
2023-05-09T01:18:47.956Z,968.0038
2023-05-09T01:19:50.583Z,968.0000
2023-05-09T01:20:53.157Z,967.9946
2023-05-09T01:21:55.802Z,967.9731
2023-05-09T01:22:58.353Z,967.9485
2023-05-09T01:24:01.007Z,967.9269
2023-05-09T01:25:03.663Z,967.8939
2023-05-09T01:26:06.261Z,967.8808
2023-05-09T01:27:08.779Z,967.8777
2023-05-09T01:28:11.382Z,967.8770
2023-05-09T01:29:13.975Z,967.8854
2023-05-09T01:30:16.586Z,967.8969
2023-05-09T01:32:29.337Z,967.9300
2023-05-09T01:33:31.916Z,967.9708
2023-05-09T01:34:34.496Z,967.9892
2023-05-09T01:35:37.126Z,968.0062
2023-05-09T01:36:39.695Z,968.0185
2023-05-09T01:37:42.340Z,968.0154
2023-05-09T01:38:44.906Z,967.9938
2023-05-09T01:39:47.543Z,967.9892
2023-05-09T01:40:50.299Z,967.9808
2023-05-09T01:41:52.720Z,967.9731
2023-05-09T01:42:55.308Z,967.9692
2023-05-09T01:43:57.942Z,967.9600
2023-05-09T01:45:00.544Z,967.9577
2023-05-09T01:46:03.120Z,967.9515
2023-05-09T01:47:05.989Z,967.9400
2023-05-09T01:48:08.438Z,967.8923
2023-05-09T01:49:10.903Z,967.8608
2023-05-09T01:50:13.552Z,967.8392
2023-05-09T01:51:16.089Z,967.8100
2023-05-09T01:52:18.734Z,967.7762
2023-05-09T01:53:21.288Z,967.7408
2023-05-09T01:54:23.913Z,967.7184
2023-05-09T01:55:26.484Z,967.7054
2023-05-09T01:56:29.211Z,967.7077
2023-05-09T01:57:31.680Z,967.6877
2023-05-09T01:58:34.306Z,967.6769
2023-05-09T01:59:36.865Z,967.6677
2023-05-09T02:02:04.077Z,967.6564
2023-05-09T02:03:06.667Z,967.6623
2023-05-09T02:04:09.214Z,967.6638
2023-05-09T02:05:12.098Z,967.6715
2023-05-09T02:06:14.416Z,967.6754
2023-05-09T02:07:17.035Z,967.6715
2023-05-09T02:08:19.612Z,967.6754
2023-05-09T02:09:22.778Z,967.6746
2023-05-09T02:10:24.817Z,967.6777
2023-05-09T02:11:27.435Z,967.6615
2023-05-09T02:12:30.116Z,967.6508
2023-05-09T02:13:32.658Z,967.6439
2023-05-09T02:14:35.199Z,967.6408
2023-05-09T02:15:37.820Z,967.6531
2023-05-09T02:16:40.463Z,967.6785
2023-05-09T02:17:43.031Z,967.6677
2023-05-09T02:18:45.627Z,967.6554
2023-05-09T02:20:58.937Z,967.6257
2023-05-09T02:22:00.925Z,967.6423
2023-05-09T02:23:03.558Z,967.6362
2023-05-09T02:24:06.121Z,967.6400
2023-05-09T02:25:08.952Z,967.6362
2023-05-09T02:26:11.317Z,967.6254
2023-05-09T02:27:13.951Z,967.6085
2023-05-09T02:28:16.642Z,967.6000
2023-05-09T02:29:19.156Z,967.5739
2023-05-09T02:30:21.755Z,967.5262
2023-05-09T02:31:24.469Z,967.5054
2023-05-09T02:32:26.950Z,967.4900
2023-05-09T02:33:29.567Z,967.4992
2023-05-09T02:34:32.136Z,967.5046
2023-05-09T02:35:34.747Z,967.5369
2023-05-09T02:36:37.326Z,967.5492
2023-05-09T02:37:39.964Z,967.5346
2023-05-09T02:38:42.545Z,967.5477
2023-05-09T02:39:45.155Z,967.5708
2023-05-09T02:40:47.733Z,967.5839
2023-05-09T02:41:50.524Z,967.5877
2023-05-09T02:42:52.927Z,967.5862
2023-05-09T02:43:55.653Z,967.5847
2023-05-09T02:44:58.148Z,967.5546
2023-05-09T02:46:00.787Z,967.5284
2023-05-09T02:47:03.341Z,967.5223
2023-05-09T02:48:08.353Z,967.5077
2023-05-09T02:49:09.131Z,967.5146
2023-05-09T02:50:11.169Z,967.5208
2023-05-09T02:51:13.839Z,967.5185
2023-05-09T02:52:16.372Z,967.5062
2023-05-09T02:53:18.940Z,967.4992
2023-05-09T02:54:21.558Z,967.4992
2023-05-09T02:55:24.139Z,967.5115
2023-05-09T02:56:26.762Z,967.5354
2023-05-09T02:57:29.332Z,967.5531
2023-05-09T02:58:31.956Z,967.5654
2023-05-09T02:59:34.629Z,967.5723
2023-05-09T03:00:37.155Z,967.5892
2023-05-09T03:01:39.773Z,967.5992
2023-05-09T03:02:42.403Z,967.6061
2023-05-09T03:03:44.983Z,967.6185
2023-05-09T03:04:47.544Z,967.6200
2023-05-09T03:05:50.112Z,967.6200
2023-05-09T03:06:52.736Z,967.6046
2023-05-09T03:07:55.311Z,967.5847
2023-05-09T03:08:57.939Z,967.5438
2023-05-09T03:10:00.518Z,967.5023
2023-05-09T03:11:03.146Z,967.4761
2023-05-09T03:12:05.764Z,967.4661
2023-05-09T03:13:08.417Z,967.4592
2023-05-09T03:14:11.036Z,967.4500
2023-05-09T03:15:13.862Z,967.4562
2023-05-09T03:16:16.141Z,967.4785
2023-05-09T03:17:18.751Z,967.4908
2023-05-09T03:18:21.302Z,967.5077
2023-05-09T03:19:23.914Z,967.5177
2023-05-09T03:20:26.499Z,967.5108
2023-05-09T03:21:29.105Z,967.5162
2023-05-09T03:22:31.697Z,967.5300
2023-05-09T03:23:34.310Z,967.4915
2023-05-09T03:24:36.866Z,967.4969
2023-05-09T03:25:39.495Z,967.4723
2023-05-09T03:26:42.063Z,967.4539
2023-05-09T03:27:44.685Z,967.4654
2023-05-09T03:28:47.255Z,967.4438
2023-05-09T03:29:49.914Z,967.4408
2023-05-09T03:30:52.567Z,967.4338
2023-05-09T03:31:55.216Z,967.4415
2023-05-09T03:32:57.681Z,967.4346
2023-05-09T03:34:00.278Z,967.4208
2023-05-09T03:35:02.846Z,967.3947
2023-05-09T03:36:05.482Z,967.3931
2023-05-09T03:37:08.031Z,967.3962
2023-05-09T03:38:10.936Z,967.4077
2023-05-09T03:39:13.250Z,967.4146
2023-05-09T03:40:15.855Z,967.4277
2023-05-09T03:41:18.432Z,967.4330
2023-05-09T03:42:21.054Z,967.4408
2023-05-09T03:43:23.630Z,967.4470
2023-05-09T03:44:26.256Z,967.4438
2023-05-09T03:45:28.841Z,967.4438
2023-05-09T03:46:31.541Z,967.4370
2023-05-09T03:47:34.120Z,967.4230
2023-05-09T03:48:36.631Z,967.4108
2023-05-09T03:49:39.202Z,967.4100
2023-05-09T03:50:41.852Z,967.3962
2023-05-09T03:51:44.394Z,967.3977
2023-05-09T03:52:47.027Z,967.3939
2023-05-09T03:53:49.742Z,967.4092
2023-05-09T03:54:52.224Z,967.4377
2023-05-09T03:55:54.800Z,967.4600
2023-05-09T03:56:57.423Z,967.4708
2023-05-09T03:57:59.991Z,967.4746
2023-05-09T03:59:02.610Z,967.4830
2023-05-09T04:00:05.196Z,967.4900
2023-05-09T04:01:07.809Z,967.4808
2023-05-09T04:02:10.501Z,967.4746
2023-05-09T04:03:13.065Z,967.4631
2023-05-09T04:04:15.598Z,967.4631
2023-05-09T04:05:18.249Z,967.4654
2023-05-09T04:06:20.784Z,967.4838
2023-05-09T04:07:23.422Z,967.4938
2023-05-09T04:08:25.996Z,967.4885
2023-05-09T04:09:28.611Z,967.5000
2023-05-09T04:10:31.185Z,967.5077
2023-05-09T04:11:33.803Z,967.5038
2023-05-09T04:12:36.407Z,967.5131
2023-05-09T04:13:39.011Z,967.5215
2023-05-09T04:14:41.597Z,967.5269
2023-05-09T04:15:44.206Z,967.5215
2023-05-09T04:16:46.795Z,967.4985
2023-05-09T04:17:49.577Z,967.4815
2023-05-09T04:18:51.983Z,967.4615
2023-05-09T04:19:54.618Z,967.4177
2023-05-09T04:20:57.189Z,967.3931
2023-05-09T04:21:59.815Z,967.3723
2023-05-09T04:23:02.383Z,967.3623
2023-05-09T04:26:03.284Z,967.3214
2023-05-09T04:27:05.904Z,967.3015
2023-05-09T04:28:08.480Z,967.2839
2023-05-09T04:29:11.103Z,967.2792
2023-05-09T04:30:13.678Z,967.2877
2023-05-09T04:31:16.436Z,967.3162
2023-05-09T04:32:18.926Z,967.3339
2023-05-09T04:33:21.609Z,967.3185
2023-05-09T04:34:24.091Z,967.3354
2023-05-09T04:35:26.722Z,967.3630
2023-05-09T04:36:29.370Z,967.3700
2023-05-09T04:37:31.906Z,967.3792
2023-05-09T04:38:34.507Z,967.3800
2023-05-09T04:39:37.099Z,967.3785
2023-05-09T04:40:39.709Z,967.3754
2023-05-09T04:41:42.321Z,967.3754
2023-05-09T04:42:44.913Z,967.3770
2023-05-09T04:43:47.775Z,967.3931
2023-05-09T04:44:50.074Z,967.4154
2023-05-09T04:45:52.745Z,967.4315
2023-05-09T04:46:55.273Z,967.4230
2023-05-09T04:47:57.949Z,967.4177
2023-05-09T04:49:00.573Z,967.3939
2023-05-09T04:50:03.092Z,967.3654
2023-05-09T04:51:05.684Z,967.3331
2023-05-09T04:52:08.289Z,967.3170
2023-05-09T04:53:10.864Z,967.3162
2023-05-09T04:54:13.498Z,967.3392
2023-05-09T04:55:16.235Z,967.3538
2023-05-09T04:56:18.680Z,967.3800
2023-05-09T04:57:21.263Z,967.3792
2023-05-09T04:58:23.893Z,967.3669
2023-05-09T04:59:26.463Z,967.3408
2023-05-09T05:00:29.095Z,967.3046
2023-05-09T05:01:31.687Z,967.2854
2023-05-09T05:02:34.327Z,967.2762
2023-05-09T05:03:36.841Z,967.2762
2023-05-09T05:04:39.597Z,967.2646
2023-05-09T05:05:42.062Z,967.2446
2023-05-09T05:06:44.671Z,967.2485
2023-05-09T05:07:47.242Z,967.2492
2023-05-09T05:08:49.843Z,967.2708
2023-05-09T05:09:52.423Z,967.2754
2023-05-09T05:10:55.043Z,967.2762
2023-05-09T05:12:01.845Z,967.2777
2023-05-09T05:13:00.268Z,967.2615
2023-05-09T05:14:02.833Z,967.2715
2023-05-09T05:15:05.450Z,967.2954
2023-05-09T05:16:08.039Z,967.3170
2023-05-09T05:17:10.643Z,967.3477
2023-05-09T05:18:13.219Z,967.3692
2023-05-09T05:19:15.860Z,967.3623
2023-05-09T05:20:18.552Z,967.3577
2023-05-09T05:21:21.046Z,967.3431
2023-05-09T05:22:23.651Z,967.3669
2023-05-09T05:23:26.254Z,967.3808
2023-05-09T05:24:28.828Z,967.4077
2023-05-09T05:25:31.443Z,967.3985
2023-05-09T05:26:34.030Z,967.3939
2023-05-09T05:27:36.674Z,967.3839
2023-05-09T05:28:39.221Z,967.3646
2023-05-09T05:29:41.848Z,967.3423
2023-05-09T05:30:44.418Z,967.3246
2023-05-09T05:31:47.137Z,967.3023
2023-05-09T05:32:49.676Z,967.2839
2023-05-09T05:33:52.245Z,967.2654
2023-05-09T05:36:14.572Z,967.2278
2023-05-09T05:37:17.189Z,967.2115
2023-05-09T05:38:19.817Z,967.2077
2023-05-09T05:39:22.397Z,967.2177
2023-05-09T05:40:24.969Z,967.2261
2023-05-09T05:41:27.608Z,967.2477
2023-05-09T05:42:30.176Z,967.2731
2023-05-09T05:43:32.805Z,967.2808
2023-05-09T05:44:35.383Z,967.2923
2023-05-09T05:45:38.057Z,967.3008
2023-05-09T05:46:40.571Z,967.2800
2023-05-09T05:47:43.240Z,967.2754
2023-05-09T05:48:45.773Z,967.2715
2023-05-09T05:49:48.395Z,967.2646
2023-05-09T05:50:50.966Z,967.2739
2023-05-09T05:51:53.680Z,967.2731
2023-05-09T05:52:56.176Z,967.2769
2023-05-09T05:53:58.938Z,967.2846
2023-05-09T05:55:01.366Z,967.2861
2023-05-09T05:56:03.986Z,967.2677
2023-05-09T05:57:06.568Z,967.2570
2023-05-09T05:58:09.212Z,967.2469
2023-05-09T05:59:13.428Z,967.2330
2023-05-09T06:00:14.402Z,967.2315
2023-05-09T06:01:16.983Z,967.2292
2023-05-09T06:02:19.618Z,967.2308
2023-05-09T06:03:22.249Z,967.2077
2023-05-09T06:04:24.804Z,967.2070
2023-05-09T06:05:27.368Z,967.1962
2023-05-09T06:06:29.991Z,967.1885
2023-05-09T06:07:32.673Z,967.1738
2023-05-09T06:08:35.195Z,967.1730
2023-05-09T06:09:37.764Z,967.1808
2023-05-09T06:10:40.390Z,967.1723
2023-05-09T06:11:42.968Z,967.1677
2023-05-09T06:12:45.651Z,967.1661
2023-05-09T06:13:48.176Z,967.1516
2023-05-09T06:14:50.799Z,967.1516
2023-05-09T06:15:53.364Z,967.1454
2023-05-09T06:16:56.009Z,967.1185
2023-05-09T06:17:58.700Z,967.1015
2023-05-09T06:19:01.185Z,967.0746
2023-05-09T06:20:03.901Z,967.0546
2023-05-09T06:21:06.390Z,967.0453
2023-05-09T06:22:08.954Z,967.0346
2023-05-09T06:23:11.664Z,967.0215
2023-05-09T06:24:23.522Z,967.0077
2023-05-09T06:25:16.977Z,967.0092
2023-05-09T06:26:19.341Z,966.9930
2023-05-09T06:27:21.969Z,966.9723
2023-05-09T06:28:24.544Z,966.9585
2023-05-09T06:29:27.164Z,966.9492
2023-05-09T06:30:29.766Z,966.9308
2023-05-09T06:31:32.361Z,966.9269
2023-05-09T06:32:35.012Z,966.9254
2023-05-09T06:33:37.543Z,966.9169
2023-05-09T06:34:40.099Z,966.9008
2023-05-09T06:35:42.727Z,966.8915
2023-05-09T06:36:45.291Z,966.8808
2023-05-09T06:37:48.760Z,966.8561
2023-05-09T06:38:50.590Z,966.8484
2023-05-09T06:39:53.119Z,966.8446
2023-05-09T06:40:55.679Z,966.8423
2023-05-09T06:41:58.305Z,966.8323
2023-05-09T06:43:00.873Z,966.8246
2023-05-09T06:44:03.493Z,966.8130
2023-05-09T06:45:06.114Z,966.7931
2023-05-09T06:46:08.762Z,966.7892
2023-05-09T06:47:11.262Z,966.7685
2023-05-09T06:48:14.497Z,966.7208
2023-05-09T06:49:16.439Z,966.6977
2023-05-09T06:50:19.060Z,966.6800
2023-05-09T06:51:21.640Z,966.6653
2023-05-09T06:52:24.259Z,966.6531
2023-05-09T06:53:26.822Z,966.6523
2023-05-09T06:54:29.518Z,966.6485
2023-05-09T06:55:32.017Z,966.6331
2023-05-09T06:56:34.630Z,966.6154
2023-05-09T06:57:37.185Z,966.6154
2023-05-09T06:58:39.812Z,966.6069
2023-05-09T06:59:42.388Z,966.6161
2023-05-09T07:00:44.996Z,966.5984
2023-05-09T07:01:47.604Z,966.5877
2023-05-09T07:02:50.247Z,966.5662
2023-05-09T07:03:52.738Z,966.5562
2023-05-09T07:04:55.401Z,966.5416
2023-05-09T07:05:57.927Z,966.5208
2023-05-09T07:07:00.552Z,966.5131
2023-05-09T07:08:03.122Z,966.5092
2023-05-09T07:09:05.720Z,966.5154
2023-05-09T07:10:11.799Z,966.5292
2023-05-09T07:11:10.901Z,966.5431
2023-05-09T07:12:13.481Z,966.5469
2023-05-09T07:13:16.108Z,966.5361
2023-05-09T07:14:18.660Z,966.5154
2023-05-09T07:15:36.871Z,966.5100
2023-05-09T07:16:23.893Z,966.4938
2023-05-09T07:17:26.526Z,966.4785
2023-05-09T07:18:29.020Z,966.4569
2023-05-09T07:19:31.636Z,966.4415
2023-05-09T07:20:34.217Z,966.4377
2023-05-09T07:21:36.833Z,966.4185
2023-05-09T07:22:39.415Z,966.4023
2023-05-09T07:23:42.008Z,966.3839
2023-05-09T07:24:44.632Z,966.3669
2023-05-09T07:25:47.291Z,966.3446
2023-05-09T07:26:49.892Z,966.3231
2023-05-09T07:27:52.372Z,966.3085
2023-05-09T07:28:54.936Z,966.2869
2023-05-09T07:29:57.567Z,966.2585
2023-05-09T07:31:00.157Z,966.2361
2023-05-09T07:32:02.792Z,966.2039
2023-05-09T07:33:05.316Z,966.1870
2023-05-09T07:34:07.978Z,966.1569
2023-05-09T07:35:10.493Z,966.1431
2023-05-09T07:36:13.091Z,966.1323
2023-05-09T07:37:16.498Z,966.1131
2023-05-09T07:38:18.287Z,966.1053
2023-05-09T07:39:20.855Z,966.0831
2023-05-09T07:40:23.490Z,966.0708
2023-05-09T07:41:26.110Z,966.0630
2023-05-09T07:42:28.618Z,966.0585
2023-05-09T07:43:31.185Z,966.0469
2023-05-09T07:44:33.812Z,966.0339
2023-05-09T07:45:38.144Z,966.0316
2023-05-09T07:46:38.974Z,966.0292
2023-05-09T07:47:41.576Z,966.0115
2023-05-09T07:48:44.158Z,965.9962
2023-05-09T07:49:46.780Z,965.9900
2023-05-09T07:50:49.361Z,965.9769
2023-05-09T07:51:51.893Z,965.9661
2023-05-09T07:53:59.681Z,965.9536
2023-05-09T07:55:02.313Z,965.9554
2023-05-09T07:56:05.250Z,965.9515
2023-05-09T07:57:07.572Z,965.9431
2023-05-09T07:58:10.054Z,965.9323
2023-05-09T07:59:12.696Z,965.9185
2023-05-09T08:00:15.316Z,965.9061
2023-05-09T08:01:17.873Z,965.8623
2023-05-09T08:02:20.469Z,965.8431
2023-05-09T08:03:23.141Z,965.8223
2023-05-09T08:04:25.624Z,965.8108
2023-05-09T08:05:28.233Z,965.7892
2023-05-09T08:06:30.794Z,965.7731
2023-05-09T08:07:33.400Z,965.7731
2023-05-09T08:08:38.285Z,965.7677
2023-05-09T08:09:38.604Z,965.7646
2023-05-09T08:10:41.173Z,965.7600
2023-05-09T08:11:44.064Z,965.7723
2023-05-09T08:12:46.470Z,965.7662
2023-05-09T08:13:48.966Z,965.7462
2023-05-09T08:14:51.558Z,965.7253
2023-05-09T08:15:54.166Z,965.7085
2023-05-09T08:16:56.711Z,965.7100
2023-05-09T08:17:59.377Z,965.7039
2023-05-09T08:19:02.164Z,965.6938
2023-05-09T08:20:04.515Z,965.6516
2023-05-09T08:21:07.100Z,965.6408
2023-05-09T08:22:09.697Z,965.6439
2023-05-09T08:23:12.264Z,965.6031
2023-05-09T08:24:14.882Z,965.5746
2023-05-09T08:25:17.561Z,965.5608
2023-05-09T08:27:59.044Z,965.5343
2023-05-09T08:29:01.560Z,965.5323
2023-05-09T08:30:04.136Z,965.5323
2023-05-09T08:31:06.795Z,965.5162
2023-05-09T08:32:09.838Z,965.5092
2023-05-09T08:33:11.956Z,965.5015
2023-05-09T08:34:14.507Z,965.4684
2023-05-09T08:35:17.431Z,965.4523
2023-05-09T08:36:19.863Z,965.4531
2023-05-09T08:37:22.289Z,965.4400
2023-05-09T08:38:24.898Z,965.4061
2023-05-09T08:39:27.473Z,965.3969
2023-05-09T08:40:30.045Z,965.3785
2023-05-09T08:42:42.652Z,965.3542
2023-05-09T08:43:45.349Z,965.3508
2023-05-09T08:44:47.826Z,965.3369
2023-05-09T08:45:50.469Z,965.3277
2023-05-09T08:46:53.082Z,965.3170
2023-05-09T08:47:55.651Z,965.2892
2023-05-09T08:48:58.210Z,965.2662
2023-05-09T08:50:00.816Z,965.2477
2023-05-09T08:51:03.385Z,965.2285
2023-05-09T08:52:06.007Z,965.2039
2023-05-09T08:53:08.617Z,965.1931
2023-05-09T08:54:11.183Z,965.1692
2023-05-09T08:55:13.778Z,965.1592
2023-05-09T08:56:16.473Z,965.1447
2023-05-09T08:57:18.934Z,965.1016
2023-05-09T09:00:17.232Z,965.0550
2023-05-09T09:01:17.507Z,965.0361
2023-05-09T09:02:20.118Z,965.0162
2023-05-09T09:03:22.680Z,964.9915
2023-05-09T09:04:25.313Z,964.9708
2023-05-09T09:05:40.730Z,964.9585
2023-05-09T09:06:30.482Z,964.9431
2023-05-09T09:07:33.047Z,964.9161
2023-05-09T09:08:35.672Z,964.9177
2023-05-09T09:09:38.256Z,964.9161
2023-05-09T09:10:40.845Z,964.9131
2023-05-09T09:11:43.415Z,964.9008
2023-05-09T09:12:47.107Z,964.8839
2023-05-09T09:13:48.584Z,964.8823
2023-05-09T09:14:51.194Z,964.8854
2023-05-09T09:15:53.879Z,964.8823
2023-05-09T09:16:56.420Z,964.8915
2023-05-09T09:17:58.979Z,964.9061
2023-05-09T09:19:01.579Z,964.8785
2023-05-09T09:20:04.120Z,964.8638
2023-05-09T09:21:06.729Z,964.8347
2023-05-09T09:22:09.308Z,964.8292
2023-05-09T09:23:11.933Z,964.8231
2023-05-09T09:24:14.478Z,964.8154
2023-05-09T09:25:18.305Z,964.8115
2023-05-09T09:26:19.653Z,964.7931
2023-05-09T09:27:22.407Z,964.7785
2023-05-09T09:28:24.834Z,964.7639
2023-05-09T09:29:27.749Z,964.7462
2023-05-09T09:30:30.004Z,964.7338
2023-05-09T09:31:32.650Z,964.7261
2023-05-09T09:32:35.252Z,964.6962
2023-05-09T09:33:37.797Z,964.6830
2023-05-09T09:34:40.373Z,964.6638
2023-05-09T09:35:42.962Z,964.6477
2023-05-09T09:36:45.523Z,964.6500
2023-05-09T09:37:48.146Z,964.6300
2023-05-09T09:38:50.839Z,964.5884
2023-05-09T09:39:53.310Z,964.5892
2023-05-09T09:40:55.927Z,964.5546
2023-05-09T09:41:58.490Z,964.5461
2023-05-09T09:43:01.045Z,964.5215
2023-05-09T09:44:03.663Z,964.5054
2023-05-09T09:45:06.325Z,964.4777
2023-05-09T09:46:08.894Z,964.4485
2023-05-09T09:48:21.471Z,964.4164
2023-05-09T09:49:23.979Z,964.3977
2023-05-09T09:50:26.574Z,964.3800
2023-05-09T09:51:29.127Z,964.3500
2023-05-09T09:52:31.736Z,964.3347
2023-05-09T09:53:34.299Z,964.3208
2023-05-09T09:54:36.925Z,964.3077
2023-05-09T09:55:39.506Z,964.3138
2023-05-09T09:56:42.305Z,964.2923
2023-05-09T09:57:44.673Z,964.2731
2023-05-09T09:58:47.336Z,964.2585
2023-05-09T09:59:49.863Z,964.2070
2023-05-09T10:00:52.465Z,964.1777
2023-05-09T10:01:55.020Z,964.1484
2023-05-09T10:02:57.785Z,964.1308
2023-05-09T10:04:00.322Z,964.1038
2023-05-09T10:05:02.818Z,964.0916
2023-05-09T10:06:05.378Z,964.0770
2023-05-09T10:07:07.984Z,964.0508
2023-05-09T10:08:10.549Z,964.0085
2023-05-09T10:09:13.177Z,963.9992
2023-05-09T10:10:16.089Z,963.9716
2023-05-09T10:11:18.356Z,963.9370
2023-05-09T10:12:20.912Z,963.9131
2023-05-09T10:13:23.848Z,963.8977
2023-05-09T10:14:26.108Z,963.8808
2023-05-09T10:15:30.055Z,963.8715
2023-05-09T10:16:42.721Z,963.8730
2023-05-09T10:17:33.987Z,963.8592
2023-05-09T10:18:36.536Z,963.8400
2023-05-09T10:19:39.618Z,963.8262
2023-05-09T10:20:41.646Z,963.7953
2023-05-09T10:21:42.246Z,963.7850
2023-05-09T10:22:46.837Z,963.7764
2023-05-09T10:23:50.515Z,963.7662
2023-05-09T10:24:55.629Z,963.7438
2023-05-09T10:25:54.627Z,963.7238
2023-05-09T10:26:57.255Z,963.7054
2023-05-09T10:27:59.939Z,963.6931
2023-05-09T10:29:02.364Z,963.6730
2023-05-09T10:30:04.953Z,963.6638
2023-05-09T10:31:08.964Z,963.6415
2023-05-09T10:32:10.094Z,963.6192
2023-05-09T10:33:12.775Z,963.5939
2023-05-09T10:34:15.274Z,963.5800
2023-05-09T10:35:17.984Z,963.5538
2023-05-09T10:36:20.522Z,963.5354
2023-05-09T10:37:23.082Z,963.5085
2023-05-09T10:38:25.672Z,963.5062
2023-05-09T10:39:28.241Z,963.4869
2023-05-09T10:40:30.801Z,963.4723
2023-05-09T10:41:33.408Z,963.4623
2023-05-09T10:42:35.982Z,963.4515
2023-05-09T10:45:17.638Z,963.4230
2023-05-09T10:46:19.980Z,963.4123
2023-05-09T10:47:22.574Z,963.3839
2023-05-09T10:48:25.136Z,963.3715
2023-05-09T10:49:28.031Z,963.3777
2023-05-09T10:50:30.394Z,963.3630
2023-05-09T10:51:32.923Z,963.3254
2023-05-09T10:52:35.484Z,963.3177
2023-05-09T10:53:38.084Z,963.3046
2023-05-09T10:54:40.644Z,963.2677
2023-05-09T10:57:02.826Z,963.2600
2023-05-09T10:58:05.376Z,963.2277
2023-05-09T10:59:07.995Z,963.2146
2023-05-09T11:00:10.560Z,963.2031
2023-05-09T11:01:13.204Z,963.2008
2023-05-09T11:02:15.728Z,963.1546
2023-05-09T11:03:18.408Z,963.1400
2023-05-09T11:04:20.922Z,963.1238
2023-05-09T11:05:23.531Z,963.1092
2023-05-09T11:06:26.189Z,963.0785
2023-05-09T11:07:28.702Z,963.0592
2023-05-09T11:08:31.306Z,963.0377
2023-05-09T11:09:34.133Z,963.0177
2023-05-09T11:10:36.441Z,962.9915
2023-05-09T11:11:39.040Z,962.9700
2023-05-09T11:12:41.814Z,962.9485
2023-05-09T11:13:44.209Z,962.9415
2023-05-09T11:14:46.766Z,962.9547
2023-05-09T11:15:49.385Z,962.9454
2023-05-09T11:16:51.961Z,962.9400
2023-05-09T11:17:54.626Z,962.9231
2023-05-09T11:18:57.119Z,962.8962
2023-05-09T11:19:59.733Z,962.8770
2023-05-09T11:21:02.285Z,962.8546
2023-05-09T11:22:05.006Z,962.8239
2023-05-09T11:24:51.071Z,962.7971
2023-05-09T11:25:53.723Z,962.7670
2023-05-09T11:26:56.456Z,962.7477
2023-05-09T11:27:58.854Z,962.7369
2023-05-09T11:29:01.412Z,962.7192
2023-05-09T11:30:04.041Z,962.7039
2023-05-09T11:31:06.624Z,962.6885
2023-05-09T11:32:09.248Z,962.6539
2023-05-09T11:33:11.781Z,962.6346
2023-05-09T11:34:14.361Z,962.6108
2023-05-09T11:35:17.232Z,962.6108
2023-05-09T11:36:19.581Z,962.5892
2023-05-09T11:37:22.193Z,962.5808
2023-05-09T11:38:24.712Z,962.5831
2023-05-09T11:39:27.272Z,962.5623
2023-05-09T11:40:29.890Z,962.5277
2023-05-09T11:41:32.471Z,962.5115
2023-05-09T11:42:35.049Z,962.4892
2023-05-09T11:43:37.603Z,962.4677
2023-05-09T11:44:40.218Z,962.4515
2023-05-09T11:45:42.771Z,962.4285
2023-05-09T11:46:45.374Z,962.4169
2023-05-09T11:47:47.979Z,962.4116
2023-05-09T11:48:50.545Z,962.3954
2023-05-09T11:49:53.096Z,962.3870
2023-05-09T11:50:55.714Z,962.3730
2023-05-09T11:51:58.265Z,962.3623
2023-05-09T11:53:01.125Z,962.3484
2023-05-09T11:54:03.435Z,962.3323
2023-05-09T11:55:06.031Z,962.3292
2023-05-09T11:56:08.603Z,962.3130
2023-05-09T11:57:11.210Z,962.3000
2023-05-09T11:58:13.766Z,962.2985
2023-05-09T11:59:16.500Z,962.2508
2023-05-09T12:00:18.926Z,962.2300
2023-05-09T12:01:21.555Z,962.2092
2023-05-09T12:02:24.196Z,962.1846
2023-05-09T12:03:27.159Z,962.1730
2023-05-09T12:06:22.547Z,962.1550
2023-05-09T12:07:25.118Z,962.1454
2023-05-09T12:08:27.809Z,962.1408
2023-05-09T12:09:30.303Z,962.1292
2023-05-09T12:10:33.275Z,962.1230
2023-05-09T12:11:35.480Z,962.1069
2023-05-09T12:12:38.073Z,962.1000
2023-05-09T12:13:40.629Z,962.0961
2023-05-09T12:14:43.254Z,962.0977
2023-05-09T12:15:45.885Z,962.0939
2023-05-09T12:16:48.423Z,962.1069
2023-05-09T12:17:52.096Z,962.0977
2023-05-09T12:18:53.574Z,962.0823
2023-05-09T12:19:56.140Z,962.0592
2023-05-09T12:20:58.761Z,962.0223
2023-05-09T12:22:01.293Z,962.0023
2023-05-09T12:23:03.900Z,961.9977
2023-05-09T12:24:06.566Z,961.9938
2023-05-09T12:25:09.067Z,961.9708
2023-05-09T12:26:11.650Z,961.9600
2023-05-09T12:27:14.249Z,961.9654
2023-05-09T12:28:16.809Z,961.9562
2023-05-09T12:29:19.415Z,961.9323
2023-05-09T12:30:21.973Z,961.9208
2023-05-09T12:31:24.641Z,961.9161
2023-05-09T12:32:27.144Z,961.9039
2023-05-09T12:33:29.757Z,961.8931
2023-05-09T12:34:32.301Z,961.8770
2023-05-09T12:35:34.911Z,961.8669
2023-05-09T12:36:37.471Z,961.8646
2023-05-09T12:37:40.093Z,961.8553
2023-05-09T12:38:42.651Z,961.8508